Time;durP1;ratioP1;P1;durP2;ratioP2;P2;SDS_P1;SDS_P2;PMS_P1;PMS_P2;Temp;Humidity;BMP_temperature;BMP_pressure;BME280_temperature;BME280_humidity;BME280_pressure;Samples;Min_cycle;Max_cycle;Signal;HPM_P1;HPM_P2
2021/08/24 00:00:25;;;;;;;7.73;6.23;;;;;;;;;;5090163;28;20349;-68
2021/08/24 00:02:50;;;;;;;10.68;6.15;;;;;;;;;;5089880;28;20253;-68
2021/08/24 00:05:19;;;;;;;18.67;5.85;;;;;;;;;;5090072;28;20016;-68
2021/08/24 00:07:44;;;;;;;9.30;4.93;;;;;;;;;;5089476;28;20036;-68
2021/08/24 00:10:10;;;;;;;14.57;4.88;;;;;;;;;;5092549;28;20012;-68
2021/08/24 00:12:35;;;;;;;7.10;3.92;;;;;;;;;;5093244;28;20012;-68
2021/08/24 00:15:00;;;;;;;7.83;4.93;;;;;;;;;;5093289;28;20609;-68
2021/08/24 00:17:25;;;;;;;6.50;3.78;;;;;;;;;;5092042;28;20260;-68
2021/08/24 00:19:51;;;;;;;11.40;4.22;;;;;;;;;;5093484;28;20095;-68
2021/08/24 00:22:16;;;;;;;10.63;4.43;;;;;;;;;;5092767;28;20031;-68
2021/08/24 00:24:41;;;;;;;7.37;4.10;;;;;;;;;;5093310;28;20270;-68
2021/08/24 00:27:06;;;;;;;8.18;4.30;;;;;;;;;;5093492;28;20805;-68
2021/08/24 00:29:31;;;;;;;10.03;4.27;;;;;;;;;;5093436;28;20016;-68
2021/08/24 00:31:57;;;;;;;8.90;3.23;;;;;;;;;;5092688;28;20286;-68
2021/08/24 00:34:22;;;;;;;8.43;3.43;;;;;;;;;;5093287;28;20288;-68
2021/08/24 00:36:47;;;;;;;6.22;3.17;;;;;;;;;;5092905;28;20242;-68
2021/08/24 00:39:12;;;;;;;4.50;2.77;;;;;;;;;;5092978;28;20476;-68
2021/08/24 00:41:37;;;;;;;7.75;2.80;;;;;;;;;;5093079;28;20255;-68
2021/08/24 00:44:05;;;;;;;18.93;3.50;;;;;;;;;;5092811;28;20020;-68
2021/08/24 00:46:32;;;;;;;5.75;2.65;;;;;;;;;;5072575;28;20605;-68
2021/08/24 00:49:03;;;;;;;5.10;2.95;;;;;;;;;;5072663;28;20044;-68
2021/08/24 00:51:30;;;;;;;7.85;2.83;;;;;;;;;;5072556;28;20027;-68
2021/08/24 00:53:55;;;;;;;7.45;2.92;;;;;;;;;;5075858;28;20473;-68
2021/08/24 00:56:21;;;;;;;5.35;2.88;;;;;;;;;;5092498;28;20099;-68
2021/08/24 00:58:46;;;;;;;9.82;2.90;;;;;;;;;;5092632;28;20052;-68
2021/08/24 01:01:12;;;;;;;5.15;2.88;;;;;;;;;;5092876;28;20016;-68
2021/08/24 01:03:38;;;;;;;11.75;2.40;;;;;;;;;;5092366;28;20069;-68
2021/08/24 01:06:14;;;;;;;4.93;2.42;;;;;;;;;;5092600;28;20432;-68
2021/08/24 01:09:00;;;;;;;8.95;2.40;;;;;;;;;;5092573;28;20018;-68
2021/08/24 01:11:43;;;;;;;5.43;2.50;;;;;;;;;;5078565;28;20432;-68
2021/08/24 01:14:14;;;;;;;4.28;2.20;;;;;;;;;;5089106;28;20091;-68
2021/08/24 01:16:42;;;;;;;5.38;1.90;;;;;;;;;;5083068;28;20020;-68
2021/08/24 01:19:19;;;;;;;5.80;2.55;;;;;;;;;;5072504;28;20417;-68
2021/08/24 01:22:03;;;;;;;9.52;3.00;;;;;;;;;;5071019;28;20023;-68
2021/08/24 01:24:35;;;;;;;6.10;2.50;;;;;;;;;;5089571;28;20048;-68
2021/08/24 01:27:07;;;;;;;6.45;2.17;;;;;;;;;;5091995;28;20363;-68
2021/08/24 01:29:44;;;;;;;9.20;2.22;;;;;;;;;;5071891;28;20020;-68
2021/08/24 01:32:09;;;;;;;6.03;2.22;;;;;;;;;;5071579;28;20359;-68
2021/08/24 01:34:40;;;;;;;8.27;1.90;;;;;;;;;;5071632;28;20103;-68
2021/08/24 01:37:28;;;;;;;5.65;2.13;;;;;;;;;;5076261;28;20326;-68
2021/08/24 01:39:55;;;;;;;5.30;1.98;;;;;;;;;;5108588;28;20019;-68
2021/08/24 01:42:21;;;;;;;9.63;2.00;;;;;;;;;;5091780;28;20503;-68
2021/08/24 01:44:53;;;;;;;8.00;2.17;;;;;;;;;;5091216;28;20036;-68
2021/08/24 01:47:18;;;;;;;9.82;2.38;;;;;;;;;;5092169;28;20477;-68
2021/08/24 01:49:49;;;;;;;6.72;2.00;;;;;;;;;;5091831;28;20026;-68
2021/08/24 01:52:16;;;;;;;4.20;2.22;;;;;;;;;;5090079;28;20028;-68
2021/08/24 01:54:45;;;;;;;12.73;2.40;;;;;;;;;;5091653;28;20437;-68
2021/08/24 01:57:13;;;;;;;4.43;1.90;;;;;;;;;;5091549;28;20015;-68
2021/08/24 01:59:43;;;;;;;5.10;2.28;;;;;;;;;;5091345;28;20023;-68
2021/08/24 02:02:11;;;;;;;4.13;2.17;;;;;;;;;;5091350;28;20016;-68
2021/08/24 02:04:45;;;;;;;6.50;2.03;;;;;;;;;;5090030;28;20024;-68
2021/08/24 02:07:11;;;;;;;8.07;1.80;;;;;;;;;;5091528;28;20020;-68
2021/08/24 02:09:39;;;;;;;7.60;2.63;;;;;;;;;;5091217;28;20027;-68
2021/08/24 02:12:05;;;;;;;10.07;2.42;;;;;;;;;;5090970;28;20158;-68
2021/08/24 02:14:33;;;;;;;5.82;2.00;;;;;;;;;;5091049;28;20024;-68
2021/08/24 02:16:59;;;;;;;17.45;2.45;;;;;;;;;;5091150;28;20026;-68
2021/08/24 02:19:27;;;;;;;2.75;1.58;;;;;;;;;;5091279;28;20541;-68
2021/08/24 02:21:56;;;;;;;3.30;2.08;;;;;;;;;;5090960;28;20028;-68
2021/08/24 02:24:24;;;;;;;5.75;1.83;;;;;;;;;;5091098;28;20103;-68
2021/08/24 02:26:50;;;;;;;4.28;2.03;;;;;;;;;;5091112;28;20046;-68
2021/08/24 02:29:15;;;;;;;3.78;2.08;;;;;;;;;;5091343;28;20073;-68
2021/08/24 02:31:44;;;;;;;4.07;1.90;;;;;;;;;;5090791;28;20027;-68
2021/08/24 02:34:22;;;;;;;3.08;2.00;;;;;;;;;;5090938;28;20027;-68
2021/08/24 02:36:54;;;;;;;8.50;2.10;;;;;;;;;;5090748;28;20024;-68
2021/08/24 02:39:21;;;;;;;4.78;1.92;;;;;;;;;;5070771;28;20490;-68
2021/08/24 02:41:52;;;;;;;4.78;1.85;;;;;;;;;;5076394;28;20043;-68
2021/08/24 02:44:22;;;;;;;9.93;2.13;;;;;;;;;;5090521;28;20366;-68
2021/08/24 02:46:51;;;;;;;7.82;2.97;;;;;;;;;;5106307;23;20497;-64
2021/08/24 02:49:19;;;;;;;5.97;1.73;;;;;;;;;;5085171;28;20392;-63
2021/08/24 02:51:45;;;;;;;5.10;1.70;;;;;;;;;;5090532;28;20012;-63
2021/08/24 02:54:15;;;;;;;5.03;2.22;;;;;;;;;;5090807;28;20538;-64
2021/08/24 02:56:40;;;;;;;4.47;2.30;;;;;;;;;;5089538;28;20049;-62
2021/08/24 02:59:05;;;;;;;6.25;2.15;;;;;;;;;;5090639;28;20012;-64
2021/08/24 03:01:31;;;;;;;6.15;2.67;;;;;;;;;;5090539;28;20031;-64
2021/08/24 03:03:56;;;;;;;8.93;1.98;;;;;;;;;;5090140;28;20053;-63
2021/08/24 03:06:21;;;;;;;5.30;1.90;;;;;;;;;;5090718;28;20362;-65
2021/08/24 03:08:47;;;;;;;11.50;1.80;;;;;;;;;;5090868;28;20425;-62
2021/08/24 03:11:13;;;;;;;5.13;1.88;;;;;;;;;;5090108;28;20335;-64
2021/08/24 03:13:43;;;;;;;5.95;1.67;;;;;;;;;;5088941;28;20024;-62
2021/08/24 03:16:12;;;;;;;5.15;2.00;;;;;;;;;;5090119;28;20024;-63
2021/08/24 03:18:44;;;;;;;4.93;1.83;;;;;;;;;;5090349;28;20024;-64
2021/08/24 03:21:11;;;;;;;3.60;1.52;;;;;;;;;;5090171;28;20024;-62
2021/08/24 03:23:37;;;;;;;3.58;2.13;;;;;;;;;;5089981;28;20031;-63
2021/08/24 03:26:02;;;;;;;6.10;2.25;;;;;;;;;;5089909;28;20039;-63
2021/08/24 03:28:28;;;;;;;7.70;2.10;;;;;;;;;;5089840;28;20369;-63
2021/08/24 03:30:53;;;;;;;5.43;2.10;;;;;;;;;;5089994;28;20377;-63
2021/08/24 03:33:18;;;;;;;6.05;2.15;;;;;;;;;;5090134;28;20303;-63
2021/08/24 03:35:44;;;;;;;5.93;2.28;;;;;;;;;;5090149;28;20466;-63
2021/08/24 03:38:09;;;;;;;4.88;2.10;;;;;;;;;;5090432;28;20054;-62
2021/08/24 03:40:35;;;;;;;6.88;2.15;;;;;;;;;;5089579;28;20383;-63
2021/08/24 03:43:00;;;;;;;3.20;1.83;;;;;;;;;;5089421;28;20369;-62
2021/08/24 03:45:25;;;;;;;5.60;2.10;;;;;;;;;;5096797;28;20035;-62
2021/08/24 03:47:51;;;;;;;6.25;1.95;;;;;;;;;;5113668;28;20038;-64
2021/08/24 03:50:16;;;;;;;7.45;2.17;;;;;;;;;;5114305;28;20030;-67
2021/08/24 03:52:41;;;;;;;3.72;2.22;;;;;;;;;;5113810;28;20019;-68
2021/08/24 03:55:07;;;;;;;4.50;1.63;;;;;;;;;;5114353;28;20028;-67
2021/08/24 03:57:32;;;;;;;10.95;2.28;;;;;;;;;;5113743;28;20024;-68
2021/08/24 03:59:58;;;;;;;6.60;1.70;;;;;;;;;;5114099;28;20024;-65
2021/08/24 04:02:24;;;;;;;3.90;2.08;;;;;;;;;;5113606;28;20046;-65
2021/08/24 04:04:49;;;;;;;3.72;1.67;;;;;;;;;;5114064;28;20382;-65
2021/08/24 04:07:15;;;;;;;7.75;2.35;;;;;;;;;;5113882;28;20030;-66
2021/08/24 04:09:40;;;;;;;10.48;2.72;;;;;;;;;;5113754;28;20020;-66
2021/08/24 04:12:05;;;;;;;7.63;2.47;;;;;;;;;;5113278;28;20313;-66
2021/08/24 04:14:31;;;;;;;3.50;2.15;;;;;;;;;;5113382;28;20092;-66
2021/08/24 04:16:56;;;;;;;9.07;2.27;;;;;;;;;;5113319;28;20022;-66
2021/08/24 04:19:21;;;;;;;7.68;3.50;;;;;;;;;;5112970;28;20257;-65
2021/08/24 04:21:46;;;;;;;6.17;3.20;;;;;;;;;;5113392;28;20096;-66
2021/08/24 04:24:11;;;;;;;4.97;2.33;;;;;;;;;;5113536;28;20249;-65
2021/08/24 04:26:37;;;;;;;5.03;2.45;;;;;;;;;;5101679;28;20039;-63
2021/08/24 04:29:02;;;;;;;11.15;2.38;;;;;;;;;;5113793;28;20030;-63
2021/08/24 04:31:30;;;;;;;4.78;2.13;;;;;;;;;;5113093;28;20069;-63
2021/08/24 04:33:55;;;;;;;3.17;1.95;;;;;;;;;;5112897;28;20076;-64
2021/08/24 04:36:22;;;;;;;5.78;1.70;;;;;;;;;;5113339;28;20020;-63
2021/08/24 04:38:47;;;;;;;9.75;2.30;;;;;;;;;;5112039;28;20056;-63
2021/08/24 04:41:12;;;;;;;2.77;2.00;;;;;;;;;;5112982;28;20028;-63
2021/08/24 04:43:37;;;;;;;4.93;2.17;;;;;;;;;;5112614;28;20284;-62
2021/08/24 04:46:02;;;;;;;14.13;2.85;;;;;;;;;;5112808;28;20312;-63
2021/08/24 04:48:28;;;;;;;6.35;2.35;;;;;;;;;;5112900;28;20051;-63
2021/08/24 04:50:53;;;;;;;4.82;2.25;;;;;;;;;;5112747;28;20031;-63
2021/08/24 04:53:18;;;;;;;8.32;2.08;;;;;;;;;;5112960;27;20016;-63
2021/08/24 04:55:43;;;;;;;5.05;2.28;;;;;;;;;;5111458;28;20077;-63
2021/08/24 04:58:09;;;;;;;5.40;2.27;;;;;;;;;;5119018;27;20027;-64
2021/08/24 05:00:34;;;;;;;6.90;2.17;;;;;;;;;;5123013;27;20297;-63
2021/08/24 05:03:00;;;;;;;5.07;2.55;;;;;;;;;;5112621;28;20258;-64
2021/08/24 05:05:25;;;;;;;7.78;2.60;;;;;;;;;;5112831;28;20023;-64
2021/08/24 05:07:51;;;;;;;6.43;2.30;;;;;;;;;;5112702;28;20026;-64
2021/08/24 05:10:16;;;;;;;4.90;2.67;;;;;;;;;;5112624;28;20495;-64
2021/08/24 05:12:41;;;;;;;3.88;1.75;;;;;;;;;;5112078;28;20031;-64
2021/08/24 05:15:07;;;;;;;4.53;2.28;;;;;;;;;;5112449;28;20012;-65
2021/08/24 05:17:32;;;;;;;7.57;2.38;;;;;;;;;;5112418;28;20473;-64
2021/08/24 05:19:57;;;;;;;12.93;2.47;;;;;;;;;;5112412;28;20028;-64
2021/08/24 05:22:22;;;;;;;4.20;2.22;;;;;;;;;;5111822;28;20759;-64
2021/08/24 05:24:48;;;;;;;5.60;2.28;;;;;;;;;;5112510;28;20100;-63
2021/08/24 05:27:13;;;;;;;10.15;2.58;;;;;;;;;;5112076;28;20354;-63
2021/08/24 05:29:38;;;;;;;6.85;2.20;;;;;;;;;;5111863;28;20373;-65
2021/08/24 05:32:04;;;;;;;6.22;2.78;;;;;;;;;;5111927;28;20028;-65
2021/08/24 05:34:29;;;;;;;6.15;2.40;;;;;;;;;;5112106;28;20020;-65
2021/08/24 05:36:54;;;;;;;6.70;2.70;;;;;;;;;;5111676;28;20571;-66
2021/08/24 05:39:19;;;;;;;9.80;2.45;;;;;;;;;;5111864;28;20477;-65
2021/08/24 05:41:45;;;;;;;4.90;2.47;;;;;;;;;;5111404;28;20023;-63
2021/08/24 05:44:10;;;;;;;6.57;2.22;;;;;;;;;;5111638;28;20978;-65
2021/08/24 05:46:35;;;;;;;5.50;2.37;;;;;;;;;;5111732;28;20444;-65
2021/08/24 05:49:00;;;;;;;7.50;2.95;;;;;;;;;;5112035;28;20262;-65
2021/08/24 05:51:26;;;;;;;9.45;2.92;;;;;;;;;;5111820;28;20030;-65
2021/08/24 05:53:51;;;;;;;8.02;2.75;;;;;;;;;;5111073;28;20031;-65
2021/08/24 05:56:19;;;;;;;6.22;2.85;;;;;;;;;;5111573;28;20051;-65
2021/08/24 05:58:44;;;;;;;5.45;2.65;;;;;;;;;;5108921;28;20444;-65
2021/08/24 06:01:15;;;;;;;5.53;2.45;;;;;;;;;;5111651;28;20047;-64
2021/08/24 06:03:41;;;;;;;7.25;2.60;;;;;;;;;;5111289;28;20027;-66
2021/08/24 06:06:06;;;;;;;6.43;3.10;;;;;;;;;;5111657;28;20355;-65
2021/08/24 06:08:31;;;;;;;10.13;3.03;;;;;;;;;;5110599;28;20273;-65
2021/08/24 06:10:56;;;;;;;7.20;2.10;;;;;;;;;;5111334;28;20031;-65
2021/08/24 06:13:21;;;;;;;3.50;2.00;;;;;;;;;;5110667;28;20026;-65
2021/08/24 06:15:46;;;;;;;14.23;3.00;;;;;;;;;;5111300;28;20659;-65
2021/08/24 06:18:12;;;;;;;4.93;2.15;;;;;;;;;;5111131;28;20274;-64
2021/08/24 06:20:37;;;;;;;7.47;2.00;;;;;;;;;;5109748;27;20110;-66
2021/08/24 06:23:02;;;;;;;5.97;2.20;;;;;;;;;;5110966;28;20012;-67
2021/08/24 06:25:28;;;;;;;9.38;2.38;;;;;;;;;;5109593;28;20323;-66
2021/08/24 06:27:53;;;;;;;6.72;2.15;;;;;;;;;;5110741;28;20038;-66
2021/08/24 06:30:19;;;;;;;8.07;3.10;;;;;;;;;;5111687;28;20099;-66
2021/08/24 06:32:48;;;;;;;5.25;2.65;;;;;;;;;;5111013;28;21013;-66
2021/08/24 06:35:14;;;;;;;4.67;2.63;;;;;;;;;;5110876;28;20051;-66
2021/08/24 06:37:39;;;;;;;5.80;2.67;;;;;;;;;;5110884;28;20094;-65
2021/08/24 06:40:05;;;;;;;7.63;2.47;;;;;;;;;;5110603;28;20544;-64
2021/08/24 06:42:41;;;;;;;10.20;2.45;;;;;;;;;;5110496;28;20020;-64
2021/08/24 06:45:07;;;;;;;8.07;2.00;;;;;;;;;;5110977;28;20022;-65
2021/08/24 06:47:32;;;;;;;5.47;2.33;;;;;;;;;;5111082;28;20384;-64
2021/08/24 06:49:57;;;;;;;9.27;3.15;;;;;;;;;;5111174;28;20056;-65
2021/08/24 06:52:23;;;;;;;5.80;2.28;;;;;;;;;;5110444;28;20384;-65
2021/08/24 06:54:48;;;;;;;5.07;2.37;;;;;;;;;;5108719;28;20440;-66
2021/08/24 06:57:13;;;;;;;12.93;2.17;;;;;;;;;;5102374;28;20348;-65
2021/08/24 06:59:38;;;;;;;5.23;1.60;;;;;;;;;;5109087;28;20106;-66
2021/08/24 07:02:05;;;;;;;7.15;1.95;;;;;;;;;;5108603;28;20289;-65
2021/08/24 07:04:30;;;;;;;5.50;2.08;;;;;;;;;;5096994;28;20054;-65
2021/08/24 07:06:55;;;;;;;4.47;1.90;;;;;;;;;;5110601;28;20024;-66
2021/08/24 07:09:20;;;;;;;9.27;2.20;;;;;;;;;;5111017;28;20261;-66
2021/08/24 07:11:46;;;;;;;3.20;1.83;;;;;;;;;;5110724;28;20087;-65
2021/08/24 07:14:11;;;;;;;6.80;2.43;;;;;;;;;;5110661;28;20020;-66
2021/08/24 07:16:40;;;;;;;4.93;1.70;;;;;;;;;;5110004;28;20105;-66
2021/08/24 07:19:05;;;;;;;13.13;2.20;;;;;;;;;;5111374;28;20028;-66
2021/08/24 07:21:30;;;;;;;5.47;2.00;;;;;;;;;;5113378;28;20370;-66
2021/08/24 07:23:56;;;;;;;5.32;1.65;;;;;;;;;;5112727;28;20022;-67
2021/08/24 07:26:21;;;;;;;3.60;1.60;;;;;;;;;;5114252;28;20378;-66
2021/08/24 07:28:46;;;;;;;2.85;2.05;;;;;;;;;;5114520;28;20224;-66
2021/08/24 07:31:12;;;;;;;3.30;1.70;;;;;;;;;;5114451;28;20338;-66
2021/08/24 07:33:37;;;;;;;4.00;1.70;;;;;;;;;;5113908;28;20272;-66
2021/08/24 07:36:03;;;;;;;5.85;1.67;;;;;;;;;;5114450;28;20012;-66
2021/08/24 07:38:28;;;;;;;5.22;1.42;;;;;;;;;;5114852;28;20015;-65
2021/08/24 07:40:53;;;;;;;2.92;2.13;;;;;;;;;;5114538;28;20375;-65
2021/08/24 07:43:19;;;;;;;3.47;1.42;;;;;;;;;;5114126;28;20023;-65
2021/08/24 07:45:45;;;;;;;3.63;1.50;;;;;;;;;;5113986;28;20027;-66
2021/08/24 07:48:11;;;;;;;4.63;1.52;;;;;;;;;;5114149;28;20515;-66
2021/08/24 07:50:36;;;;;;;4.77;1.53;;;;;;;;;;5114106;28;20035;-66
2021/08/24 07:53:01;;;;;;;4.28;1.60;;;;;;;;;;5114265;28;20072;-67
2021/08/24 07:55:27;;;;;;;2.08;1.20;;;;;;;;;;5114474;27;22210;-66
2021/08/24 07:57:52;;;;;;;3.97;1.77;;;;;;;;;;5114063;28;20028;-66
2021/08/24 08:00:17;;;;;;;4.50;2.23;;;;;;;;;;5114296;28;20046;-65
2021/08/24 08:02:42;;;;;;;4.00;2.03;;;;;;;;;;5113494;28;20065;-66
2021/08/24 08:05:08;;;;;;;3.23;1.77;;;;;;;;;;5113733;28;20020;-67
2021/08/24 08:07:34;;;;;;;3.30;1.65;;;;;;;;;;5113793;28;20019;-66
2021/08/24 08:09:59;;;;;;;2.53;1.47;;;;;;;;;;5113275;28;20014;-66
2021/08/24 08:12:24;;;;;;;4.38;1.92;;;;;;;;;;5113291;28;20478;-66
2021/08/24 08:14:49;;;;;;;5.47;2.10;;;;;;;;;;5113755;28;20034;-67
2021/08/24 08:17:15;;;;;;;5.30;1.92;;;;;;;;;;5113935;28;20257;-67
2021/08/24 08:19:40;;;;;;;3.78;2.03;;;;;;;;;;5113207;28;20015;-67
2021/08/24 08:22:06;;;;;;;2.83;1.60;;;;;;;;;;5113352;28;20035;-67
2021/08/24 08:24:32;;;;;;;4.63;2.17;;;;;;;;;;5113250;28;20447;-67
2021/08/24 08:26:57;;;;;;;4.40;1.60;;;;;;;;;;5113364;28;20051;-67
2021/08/24 08:29:22;;;;;;;6.25;2.13;;;;;;;;;;5113553;28;20020;-66
2021/08/24 08:31:48;;;;;;;6.50;1.87;;;;;;;;;;5113314;28;20590;-67
2021/08/24 08:34:13;;;;;;;7.53;2.10;;;;;;;;;;5113413;28;20059;-66
2021/08/24 08:36:38;;;;;;;5.10;1.77;;;;;;;;;;5113269;28;20086;-65
2021/08/24 08:39:04;;;;;;;5.32;1.85;;;;;;;;;;5113379;28;20473;-65
2021/08/24 08:41:32;;;;;;;4.00;2.13;;;;;;;;;;5113085;28;20023;-66
2021/08/24 08:44:03;;;;;;;3.50;1.95;;;;;;;;;;5112910;28;20016;-65
2021/08/24 08:46:34;;;;;;;4.90;2.67;;;;;;;;;;5113598;28;20062;-66
2021/08/24 08:49:14;;;;;;;3.55;2.17;;;;;;;;;;5112744;28;20023;-67
2021/08/24 08:51:39;;;;;;;4.95;2.22;;;;;;;;;;5112901;28;20023;-66
2021/08/24 08:54:10;;;;;;;3.63;2.23;;;;;;;;;;5112693;28;20016;-66
2021/08/24 08:56:45;;;;;;;6.60;2.72;;;;;;;;;;5113053;28;20542;-65
2021/08/24 08:59:14;;;;;;;5.05;1.85;;;;;;;;;;5112837;28;20020;-64
2021/08/24 09:01:46;;;;;;;3.85;2.30;;;;;;;;;;5112772;28;20016;-66
2021/08/24 09:04:23;;;;;;;4.15;2.63;;;;;;;;;;5112611;28;20027;-65
2021/08/24 09:06:49;;;;;;;4.07;2.53;;;;;;;;;;5112629;28;20069;-66
2021/08/24 09:09:15;;;;;;;3.90;2.30;;;;;;;;;;5112646;28;20023;-64
2021/08/24 09:11:43;;;;;;;6.18;2.70;;;;;;;;;;5112605;28;20020;-65
2021/08/24 09:14:20;;;;;;;5.18;2.40;;;;;;;;;;5094492;28;20016;-64
2021/08/24 09:16:50;;;;;;;4.72;1.90;;;;;;;;;;5112220;28;20105;-65
2021/08/24 09:19:22;;;;;;;5.93;2.78;;;;;;;;;;5112431;28;20012;-65
2021/08/24 09:21:47;;;;;;;4.10;2.25;;;;;;;;;;5111994;28;20027;-66
2021/08/24 09:24:14;;;;;;;5.30;2.47;;;;;;;;;;5112292;28;20388;-66
2021/08/24 09:26:39;;;;;;;7.85;2.58;;;;;;;;;;5112140;28;20045;-65
2021/08/24 09:29:05;;;;;;;6.20;3.00;;;;;;;;;;5112454;28;20019;-65
2021/08/24 09:31:30;;;;;;;7.10;2.85;;;;;;;;;;5112297;28;20038;-65
2021/08/24 09:33:56;;;;;;;5.22;2.97;;;;;;;;;;5111490;28;20680;-66
2021/08/24 09:36:21;;;;;;;6.33;3.60;;;;;;;;;;5111911;28;20020;-65
2021/08/24 09:38:46;;;;;;;10.93;3.80;;;;;;;;;;5112001;28;20084;-66
2021/08/24 09:41:24;;;;;;;7.72;3.45;;;;;;;;;;5111137;28;20261;-65
2021/08/24 09:43:49;;;;;;;7.95;4.07;;;;;;;;;;5090990;28;20028;-65
2021/08/24 09:46:17;;;;;;;8.65;4.07;;;;;;;;;;5110408;28;20046;-65
2021/08/24 09:48:57;;;;;;;9.23;4.10;;;;;;;;;;5111012;28;20036;-64
2021/08/24 09:51:36;;;;;;;7.32;3.97;;;;;;;;;;5111918;28;20028;-65
2021/08/24 09:54:03;;;;;;;6.47;3.90;;;;;;;;;;5111723;28;20465;-65
2021/08/24 09:56:33;;;;;;;6.88;3.88;;;;;;;;;;5111929;28;20088;-65
2021/08/24 09:58:59;;;;;;;6.35;2.95;;;;;;;;;;5111618;28;20022;-65
2021/08/24 10:01:24;;;;;;;7.05;3.45;;;;;;;;;;5111525;28;20016;-66
2021/08/24 10:04:03;;;;;;;6.40;3.47;;;;;;;;;;5110312;28;20026;-65
2021/08/24 10:06:33;;;;;;;6.68;3.20;;;;;;;;;;5111482;28;20107;-65
2021/08/24 10:09:12;;;;;;;6.90;3.92;;;;;;;;;;5111462;28;20393;-65
2021/08/24 10:11:37;;;;;;;5.50;3.15;;;;;;;;;;5111299;28;20027;-66
2021/08/24 10:14:17;;;;;;;10.18;3.35;;;;;;;;;;5111275;28;20019;-65
2021/08/24 10:16:43;;;;;;;4.75;2.55;;;;;;;;;;5111340;28;20372;-64
2021/08/24 10:19:16;;;;;;;10.13;3.40;;;;;;;;;;5111255;28;20026;-66
2021/08/24 10:21:43;;;;;;;5.28;2.92;;;;;;;;;;5110896;28;20380;-65
2021/08/24 10:24:11;;;;;;;5.80;2.63;;;;;;;;;;5111046;28;20027;-65
2021/08/24 10:26:37;;;;;;;5.72;2.78;;;;;;;;;;5101334;28;20130;-65
2021/08/24 10:29:05;;;;;;;4.80;2.95;;;;;;;;;;5111412;28;20060;-66
2021/08/24 10:31:36;;;;;;;6.10;3.22;;;;;;;;;;5110910;28;20019;-66
2021/08/24 10:34:04;;;;;;;10.45;2.97;;;;;;;;;;5111298;28;20028;-65
2021/08/24 10:36:36;;;;;;;7.00;2.92;;;;;;;;;;5111047;28;20087;-65
2021/08/24 10:39:16;;;;;;;7.93;2.92;;;;;;;;;;5111126;28;20035;-66
2021/08/24 10:41:42;;;;;;;5.03;2.15;;;;;;;;;;5110903;28;20020;-66
2021/08/24 10:44:17;;;;;;;5.78;2.67;;;;;;;;;;5108322;28;20485;-66
2021/08/24 10:47:03;;;;;;;5.63;2.90;;;;;;;;;;5110464;28;20038;-65
2021/08/24 10:49:28;;;;;;;4.43;1.95;;;;;;;;;;5110774;28;20035;-65
2021/08/24 10:51:56;;;;;;;6.22;2.80;;;;;;;;;;5110423;28;20091;-65
2021/08/24 10:54:29;;;;;;;4.80;2.35;;;;;;;;;;5110924;28;20011;-66
2021/08/24 10:57:09;;;;;;;6.93;2.33;;;;;;;;;;5110795;28;20051;-64
2021/08/24 10:59:44;;;;;;;4.00;2.20;;;;;;;;;;5110938;28;20502;-65
2021/08/24 11:02:15;;;;;;;4.53;2.60;;;;;;;;;;5110530;28;20071;-65
2021/08/24 11:04:58;;;;;;;5.22;2.50;;;;;;;;;;5110745;28;20104;-65
2021/08/24 11:07:37;;;;;;;5.60;2.53;;;;;;;;;;5110488;28;20027;-66
2021/08/24 11:10:12;;;;;;;7.03;2.70;;;;;;;;;;5110985;28;20019;-65
2021/08/24 11:12:37;;;;;;;7.03;2.35;;;;;;;;;;5110639;28;20059;-66
2021/08/24 11:15:23;;;;;;;5.65;2.08;;;;;;;;;;5110955;28;20039;-66
2021/08/24 11:17:48;;;;;;;3.78;2.03;;;;;;;;;;5117131;28;20035;-66
2021/08/24 11:20:18;;;;;;;3.67;1.90;;;;;;;;;;5124158;28;20012;-66
2021/08/24 11:22:43;;;;;;;5.80;1.70;;;;;;;;;;5110416;28;20067;-66
2021/08/24 11:25:23;;;;;;;3.75;1.67;;;;;;;;;;5110746;28;20020;-66
2021/08/24 11:27:51;;;;;;;6.75;1.98;;;;;;;;;;5110697;28;20037;-66
2021/08/24 11:30:21;;;;;;;3.33;2.20;;;;;;;;;;5110804;28;20020;-66
2021/08/24 11:32:49;;;;;;;5.25;1.95;;;;;;;;;;5089921;28;20032;-66
2021/08/24 11:35:19;;;;;;;6.97;2.03;;;;;;;;;;5090185;28;20024;-66
2021/08/24 11:38:02;;;;;;;4.30;2.10;;;;;;;;;;5107679;28;20092;-67
2021/08/24 11:40:40;;;;;;;4.88;1.90;;;;;;;;;;5110709;28;20020;-66
2021/08/24 11:43:10;;;;;;;5.22;1.98;;;;;;;;;;5110271;28;20030;-66
2021/08/24 11:45:49;;;;;;;6.50;2.60;;;;;;;;;;5109908;28;20465;-66
2021/08/24 11:48:18;;;;;;;5.90;2.63;;;;;;;;;;5110688;28;20503;-66
2021/08/24 11:50:43;;;;;;;5.75;2.08;;;;;;;;;;5110349;28;20039;-67
2021/08/24 11:53:12;;;;;;;58.95;31.63;;;;;;;;;;5110152;28;20477;-66
2021/08/24 11:55:38;;;;;;;4.20;2.30;;;;;;;;;;5110642;28;20019;-66
2021/08/24 11:58:25;;;;;;;6.57;2.10;;;;;;;;;;5110631;28;20465;-67
2021/08/24 12:00:55;;;;;;;10.02;2.05;;;;;;;;;;5110156;28;20373;-67
2021/08/24 12:03:22;;;;;;;4.95;2.53;;;;;;;;;;5110107;28;20020;-66
2021/08/24 12:05:49;;;;;;;4.72;2.33;;;;;;;;;;5112316;28;20028;-67
2021/08/24 12:08:22;;;;;;;8.38;2.30;;;;;;;;;;5113550;28;20035;-66
2021/08/24 12:10:50;;;;;;;7.15;2.47;;;;;;;;;;5114026;28;20114;-66
2021/08/24 12:13:24;;;;;;;5.82;2.42;;;;;;;;;;5113703;28;20016;-66
2021/08/24 12:16:06;;;;;;;7.15;2.63;;;;;;;;;;5113882;28;20338;-66
2021/08/24 12:18:31;;;;;;;3.10;1.80;;;;;;;;;;5113887;28;20081;-66
2021/08/24 12:20:58;;;;;;;7.93;2.45;;;;;;;;;;5113140;28;20039;-65
2021/08/24 12:23:30;;;;;;;5.53;2.45;;;;;;;;;;5113343;28;20023;-66
2021/08/24 12:25:55;;;;;;;5.25;2.75;;;;;;;;;;5113312;28;20067;-66
2021/08/24 12:28:22;;;;;;;5.43;2.40;;;;;;;;;;5113924;28;20055;-66
2021/08/24 12:30:59;;;;;;;4.57;2.20;;;;;;;;;;5113524;28;20575;-66
2021/08/24 12:33:32;;;;;;;4.47;2.10;;;;;;;;;;5112796;28;20098;-66
2021/08/24 12:35:58;;;;;;;7.15;2.45;;;;;;;;;;5113339;28;20016;-66
2021/08/24 12:38:44;;;;;;;10.32;2.65;;;;;;;;;;5113315;28;20031;-66
2021/08/24 12:41:10;;;;;;;10.65;2.78;;;;;;;;;;5112942;28;20020;-67
2021/08/24 12:43:48;;;;;;;4.50;2.33;;;;;;;;;;5113149;28;20084;-67
2021/08/24 12:46:19;;;;;;;9.95;3.78;;;;;;;;;;5112641;28;20024;-66
2021/08/24 12:49:03;;;;;;;8.55;2.67;;;;;;;;;;5113283;28;20024;-67
2021/08/24 12:51:29;;;;;;;7.65;3.05;;;;;;;;;;5113119;28;20023;-67
2021/08/24 12:54:01;;;;;;;7.47;2.67;;;;;;;;;;5112506;28;20019;-67
2021/08/24 12:56:38;;;;;;;6.63;2.20;;;;;;;;;;5113144;28;20019;-66
2021/08/24 12:59:03;;;;;;;4.40;2.45;;;;;;;;;;5112231;28;20024;-67
2021/08/24 13:01:28;;;;;;;5.68;2.92;;;;;;;;;;5113075;28;20145;-66
2021/08/24 13:03:54;;;;;;;6.28;3.45;;;;;;;;;;5112295;28;20097;-67
2021/08/24 13:06:20;;;;;;;7.90;3.23;;;;;;;;;;5112681;28;20501;-67
2021/08/24 13:08:47;;;;;;;5.25;2.85;;;;;;;;;;5112937;28;20282;-67
2021/08/24 13:11:38;;;;;;;5.22;2.53;;;;;;;;;;5112533;28;20027;-66
2021/08/24 13:14:06;;;;;;;4.38;2.70;;;;;;;;;;5109930;28;20532;-67
2021/08/24 13:16:49;;;;;;;5.05;3.00;;;;;;;;;;5111137;28;20525;-66
2021/08/24 13:19:17;;;;;;;9.20;2.63;;;;;;;;;;5112605;28;20011;-68
2021/08/24 13:21:50;;;;;;;7.43;2.75;;;;;;;;;;5112479;28;20594;-67
2021/08/24 13:24:25;;;;;;;6.15;2.75;;;;;;;;;;5112621;28;20028;-67
2021/08/24 13:26:53;;;;;;;6.82;3.45;;;;;;;;;;5111875;28;20469;-66
2021/08/24 13:29:19;;;;;;;4.82;2.15;;;;;;;;;;5111995;28;20028;-67
2021/08/24 13:31:51;;;;;;;6.90;3.08;;;;;;;;;;5111998;28;20023;-66
2021/08/24 13:34:35;;;;;;;8.98;2.85;;;;;;;;;;5111913;28;20027;-67
2021/08/24 13:37:00;;;;;;;7.30;3.00;;;;;;;;;;5111980;28;20520;-67
2021/08/24 13:39:26;;;;;;;8.38;2.30;;;;;;;;;;5112142;28;20016;-68
2021/08/24 13:41:52;;;;;;;6.60;2.90;;;;;;;;;;5112170;28;20474;-66
2021/08/24 13:44:21;;;;;;;6.05;2.55;;;;;;;;;;5111910;28;20031;-65
2021/08/24 13:46:51;;;;;;;6.05;2.58;;;;;;;;;;5110740;28;20046;-65
2021/08/24 13:49:18;;;;;;;7.22;3.45;;;;;;;;;;5112158;28;20043;-66
2021/08/24 13:51:49;;;;;;;6.95;2.92;;;;;;;;;;5111043;28;20475;-65
2021/08/24 13:54:14;;;;;;;5.68;2.67;;;;;;;;;;5099735;28;20410;-64
2021/08/24 13:56:40;;;;;;;9.32;3.17;;;;;;;;;;5111592;28;20095;-66
2021/08/24 13:59:07;;;;;;;6.85;2.70;;;;;;;;;;5111069;28;20016;-66
2021/08/24 14:01:34;;;;;;;9.52;2.75;;;;;;;;;;5111531;28;20031;-66
2021/08/24 14:04:01;;;;;;;8.18;2.95;;;;;;;;;;5111532;28;20016;-65
2021/08/24 14:06:27;;;;;;;6.85;2.75;;;;;;;;;;5111562;28;20020;-66
2021/08/24 14:08:54;;;;;;;4.93;2.80;;;;;;;;;;5111122;28;20039;-67
2021/08/24 14:11:23;;;;;;;4.97;2.58;;;;;;;;;;5092644;28;20473;-66
2021/08/24 14:13:50;;;;;;;6.18;2.78;;;;;;;;;;5110756;28;20098;-66
2021/08/24 14:16:24;;;;;;;6.00;2.90;;;;;;;;;;5111248;28;20082;-66
2021/08/24 14:18:51;;;;;;;7.05;2.67;;;;;;;;;;5111557;28;20012;-66
2021/08/24 14:21:16;;;;;;;8.48;2.80;;;;;;;;;;5111008;28;20394;-66
2021/08/24 14:23:46;;;;;;;8.10;2.78;;;;;;;;;;5111403;27;20019;-66
2021/08/24 14:26:31;;;;;;;5.68;2.97;;;;;;;;;;5111065;28;20016;-66
2021/08/24 14:28:57;;;;;;;6.22;2.85;;;;;;;;;;5090915;28;20028;-66
2021/08/24 14:31:23;;;;;;;5.40;2.78;;;;;;;;;;5107282;28;20086;-66
2021/08/24 14:33:49;;;;;;;6.80;2.80;;;;;;;;;;5110795;28;20073;-66
2021/08/24 14:36:33;;;;;;;7.32;2.60;;;;;;;;;;5110896;28;20066;-66
2021/08/24 14:39:10;;;;;;;7.18;2.60;;;;;;;;;;5111167;28;20036;-65
2021/08/24 14:41:44;;;;;;;5.22;2.53;;;;;;;;;;5110450;28;20047;-66
2021/08/24 14:44:14;;;;;;;6.82;2.72;;;;;;;;;;5110942;28;20046;-65
2021/08/24 14:47:15;;;;;;;5.60;2.45;;;;;;;;;;5120919;22;20036;-87